sensor_id;sensor_type;location;lat;lon;timestamp;P1;durP1;ratioP1;P2;durP2;ratioP2
9422;SDS011;4750;49.506;10.400;2022-09-29T00:00:58;8.13;;;6.00;;
9422;SDS011;4750;49.506;10.400;2022-09-29T00:03:44;8.47;;;6.77;;
9422;SDS011;4750;49.506;10.400;2022-09-29T00:06:28;7.97;;;6.23;;
9422;SDS011;4750;49.506;10.400;2022-09-29T00:09:13;6.27;;;5.67;;
9422;SDS011;4750;49.506;10.400;2022-09-29T00:11:57;8.03;;;5.97;;
9422;SDS011;4750;49.506;10.400;2022-09-29T00:14:41;7.90;;;5.70;;
9422;SDS011;4750;49.506;10.400;2022-09-29T00:17:25;6.97;;;5.33;;
9422;SDS011;4750;49.506;10.400;2022-09-29T00:20:09;7.07;;;5.40;;
9422;SDS011;4750;49.506;10.400;2022-09-29T00:22:54;7.93;;;6.10;;
9422;SDS011;4750;49.506;10.400;2022-09-29T00:25:38;7.17;;;6.07;;
9422;SDS011;4750;49.506;10.400;2022-09-29T00:28:22;7.83;;;6.43;;
9422;SDS011;4750;49.506;10.400;2022-09-29T00:31:07;8.73;;;6.33;;
9422;SDS011;4750;49.506;10.400;2022-09-29T00:33:54;6.73;;;6.03;;
9422;SDS011;4750;49.506;10.400;2022-09-29T00:36:38;7.23;;;6.10;;
9422;SDS011;4750;49.506;10.400;2022-09-29T00:39:22;7.03;;;5.87;;
9422;SDS011;4750;49.506;10.400;2022-09-29T00:42:06;6.47;;;5.83;;
9422;SDS011;4750;49.506;10.400;2022-09-29T00:48:05;8.07;;;6.07;;
9422;SDS011;4750;49.506;10.400;2022-09-29T00:50:55;9.60;;;6.97;;
9422;SDS011;4750;49.506;10.400;2022-09-29T00:53:39;9.43;;;6.00;;
9422;SDS011;4750;49.506;10.400;2022-09-29T00:56:25;8.00;;;6.00;;
9422;SDS011;4750;49.506;10.400;2022-09-29T00:59:12;6.20;;;5.43;;
9422;SDS011;4750;49.506;10.400;2022-09-29T01:02:02;6.57;;;5.90;;
9422;SDS011;4750;49.506;10.400;2022-09-29T01:04:47;7.70;;;5.80;;
9422;SDS011;4750;49.506;10.400;2022-09-29T01:07:35;8.23;;;5.60;;
9422;SDS011;4750;49.506;10.400;2022-09-29T01:10:19;6.63;;;5.73;;
9422;SDS011;4750;49.506;10.400;2022-09-29T01:13:04;8.00;;;6.47;;
9422;SDS011;4750;49.506;10.400;2022-09-29T01:15:48;7.07;;;6.33;;
9422;SDS011;4750;49.506;10.400;2022-09-29T01:18:33;6.17;;;5.57;;
9422;SDS011;4750;49.506;10.400;2022-09-29T01:21:40;7.40;;;5.70;;
9422;SDS011;4750;49.506;10.400;2022-09-29T01:24:47;6.80;;;6.10;;
9422;SDS011;4750;49.506;10.400;2022-09-29T01:40:07;10.37;;;5.93;;
9422;SDS011;4750;49.506;10.400;2022-09-29T01:43:03;7.43;;;5.80;;
9422;SDS011;4750;49.506;10.400;2022-09-29T01:46:05;7.70;;;6.03;;
9422;SDS011;4750;49.506;10.400;2022-09-29T01:48:55;8.80;;;6.13;;
9422;SDS011;4750;49.506;10.400;2022-09-29T01:51:43;8.23;;;6.00;;
9422;SDS011;4750;49.506;10.400;2022-09-29T01:54:38;7.10;;;5.87;;
9422;SDS011;4750;49.506;10.400;2022-09-29T01:57:33;6.67;;;5.97;;
9422;SDS011;4750;49.506;10.400;2022-09-29T02:00:25;7.37;;;5.83;;
9422;SDS011;4750;49.506;10.400;2022-09-29T02:06:28;7.47;;;6.27;;
9422;SDS011;4750;49.506;10.400;2022-09-29T02:09:23;8.00;;;6.60;;
9422;SDS011;4750;49.506;10.400;2022-09-29T02:12:13;8.87;;;6.00;;
9422;SDS011;4750;49.506;10.400;2022-09-29T02:15:02;5.80;;;5.17;;
9422;SDS011;4750;49.506;10.400;2022-09-29T02:17:51;9.77;;;5.90;;
9422;SDS011;4750;49.506;10.400;2022-09-29T02:20:37;5.97;;;5.37;;
9422;SDS011;4750;49.506;10.400;2022-09-29T02:23:21;8.33;;;6.00;;
9422;SDS011;4750;49.506;10.400;2022-09-29T02:26:05;7.43;;;5.87;;
9422;SDS011;4750;49.506;10.400;2022-09-29T02:28:49;10.53;;;5.73;;
9422;SDS011;4750;49.506;10.400;2022-09-29T02:31:35;7.63;;;6.00;;
9422;SDS011;4750;49.506;10.400;2022-09-29T02:34:21;8.00;;;7.20;;
9422;SDS011;4750;49.506;10.400;2022-09-29T02:37:10;7.63;;;6.83;;
9422;SDS011;4750;49.506;10.400;2022-09-29T02:58:23;9.13;;;6.13;;
9422;SDS011;4750;49.506;10.400;2022-09-29T03:01:13;8.47;;;6.00;;
9422;SDS011;4750;49.506;10.400;2022-09-29T03:03:59;7.17;;;6.00;;
9422;SDS011;4750;49.506;10.400;2022-09-29T03:06:43;9.03;;;6.37;;
9422;SDS011;4750;49.506;10.400;2022-09-29T03:09:27;8.13;;;6.33;;
9422;SDS011;4750;49.506;10.400;2022-09-29T03:12:11;7.73;;;5.97;;
9422;SDS011;4750;49.506;10.400;2022-09-29T03:14:56;7.33;;;5.67;;
9422;SDS011;4750;49.506;10.400;2022-09-29T03:17:40;6.13;;;5.37;;
9422;SDS011;4750;49.506;10.400;2022-09-29T03:20:24;7.00;;;5.87;;
9422;SDS011;4750;49.506;10.400;2022-09-29T03:23:09;9.50;;;5.83;;
9422;SDS011;4750;49.506;10.400;2022-09-29T03:25:53;6.40;;;5.80;;
9422;SDS011;4750;49.506;10.400;2022-09-29T03:28:37;8.70;;;5.00;;
9422;SDS011;4750;49.506;10.400;2022-09-29T03:31:21;5.50;;;4.93;;
9422;SDS011;4750;49.506;10.400;2022-09-29T03:34:05;6.97;;;4.90;;
9422;SDS011;4750;49.506;10.400;2022-09-29T03:36:49;6.30;;;4.97;;
9422;SDS011;4750;49.506;10.400;2022-09-29T03:39:33;7.27;;;5.10;;
9422;SDS011;4750;49.506;10.400;2022-09-29T03:42:17;7.20;;;5.27;;
9422;SDS011;4750;49.506;10.400;2022-09-29T03:45:02;6.73;;;5.33;;
9422;SDS011;4750;49.506;10.400;2022-09-29T03:47:46;5.77;;;4.90;;
9422;SDS011;4750;49.506;10.400;2022-09-29T03:50:30;6.70;;;5.27;;
9422;SDS011;4750;49.506;10.400;2022-09-29T03:53:14;6.77;;;5.90;;
9422;SDS011;4750;49.506;10.400;2022-09-29T03:55:58;7.47;;;5.17;;
9422;SDS011;4750;49.506;10.400;2022-09-29T03:58:42;8.10;;;5.70;;
9422;SDS011;4750;49.506;10.400;2022-09-29T04:01:26;12.20;;;5.90;;
9422;SDS011;4750;49.506;10.400;2022-09-29T04:04:10;13.20;;;6.50;;
9422;SDS011;4750;49.506;10.400;2022-09-29T04:06:55;9.77;;;5.93;;
9422;SDS011;4750;49.506;10.400;2022-09-29T04:09:39;10.40;;;6.80;;
9422;SDS011;4750;49.506;10.400;2022-09-29T04:12:23;10.80;;;7.37;;
9422;SDS011;4750;49.506;10.400;2022-09-29T04:15:07;10.13;;;8.00;;
9422;SDS011;4750;49.506;10.400;2022-09-29T04:17:51;9.90;;;8.60;;
9422;SDS011;4750;49.506;10.400;2022-09-29T04:20:36;10.90;;;8.10;;
9422;SDS011;4750;49.506;10.400;2022-09-29T04:23:21;11.87;;;7.33;;
9422;SDS011;4750;49.506;10.400;2022-09-29T04:26:06;9.43;;;8.43;;
9422;SDS011;4750;49.506;10.400;2022-09-29T04:28:50;9.43;;;8.33;;
9422;SDS011;4750;49.506;10.400;2022-09-29T04:31:34;9.73;;;7.43;;
9422;SDS011;4750;49.506;10.400;2022-09-29T04:34:18;9.67;;;7.70;;
9422;SDS011;4750;49.506;10.400;2022-09-29T04:37:03;8.17;;;6.97;;
9422;SDS011;4750;49.506;10.400;2022-09-29T04:39:46;7.90;;;6.77;;
9422;SDS011;4750;49.506;10.400;2022-09-29T04:42:31;15.90;;;7.93;;
9422;SDS011;4750;49.506;10.400;2022-09-29T04:45:15;6.93;;;6.33;;
9422;SDS011;4750;49.506;10.400;2022-09-29T04:47:59;9.20;;;6.23;;
9422;SDS011;4750;49.506;10.400;2022-09-29T04:50:43;7.53;;;6.37;;
9422;SDS011;4750;49.506;10.400;2022-09-29T04:53:27;9.60;;;6.73;;
9422;SDS011;4750;49.506;10.400;2022-09-29T04:56:11;11.83;;;8.20;;
9422;SDS011;4750;49.506;10.400;2022-09-29T04:58:56;15.67;;;9.57;;
9422;SDS011;4750;49.506;10.400;2022-09-29T05:01:41;13.47;;;9.50;;
9422;SDS011;4750;49.506;10.400;2022-09-29T05:04:25;11.97;;;9.70;;
9422;SDS011;4750;49.506;10.400;2022-09-29T05:07:09;10.93;;;9.17;;
9422;SDS011;4750;49.506;10.400;2022-09-29T05:09:53;10.73;;;8.67;;
9422;SDS011;4750;49.506;10.400;2022-09-29T05:12:37;13.10;;;8.37;;
9422;SDS011;4750;49.506;10.400;2022-09-29T05:15:21;10.33;;;8.10;;
9422;SDS011;4750;49.506;10.400;2022-09-29T05:18:05;9.50;;;8.27;;
9422;SDS011;4750;49.506;10.400;2022-09-29T05:20:49;9.87;;;7.67;;
9422;SDS011;4750;49.506;10.400;2022-09-29T05:23:33;10.63;;;6.77;;
9422;SDS011;4750;49.506;10.400;2022-09-29T05:26:18;6.63;;;5.93;;
9422;SDS011;4750;49.506;10.400;2022-09-29T05:29:01;6.53;;;5.90;;
9422;SDS011;4750;49.506;10.400;2022-09-29T05:31:45;6.53;;;5.73;;
9422;SDS011;4750;49.506;10.400;2022-09-29T05:34:29;9.80;;;7.63;;
9422;SDS011;4750;49.506;10.400;2022-09-29T05:37:13;9.30;;;7.20;;
9422;SDS011;4750;49.506;10.400;2022-09-29T05:39:57;13.43;;;8.27;;
9422;SDS011;4750;49.506;10.400;2022-09-29T05:42:41;11.50;;;7.60;;
9422;SDS011;4750;49.506;10.400;2022-09-29T05:45:25;9.97;;;7.63;;
9422;SDS011;4750;49.506;10.400;2022-09-29T05:48:10;8.33;;;7.40;;
9422;SDS011;4750;49.506;10.400;2022-09-29T05:50:57;10.23;;;6.80;;
9422;SDS011;4750;49.506;10.400;2022-09-29T05:53:42;9.37;;;6.83;;
9422;SDS011;4750;49.506;10.400;2022-09-29T05:56:26;8.47;;;7.00;;
9422;SDS011;4750;49.506;10.400;2022-09-29T05:59:10;7.90;;;6.43;;
9422;SDS011;4750;49.506;10.400;2022-09-29T06:01:55;12.40;;;6.90;;
9422;SDS011;4750;49.506;10.400;2022-09-29T06:04:39;9.63;;;6.67;;
9422;SDS011;4750;49.506;10.400;2022-09-29T06:07:23;10.73;;;8.00;;
9422;SDS011;4750;49.506;10.400;2022-09-29T06:10:07;11.90;;;7.67;;
9422;SDS011;4750;49.506;10.400;2022-09-29T06:12:52;9.27;;;6.60;;
9422;SDS011;4750;49.506;10.400;2022-09-29T06:15:36;8.13;;;6.87;;
9422;SDS011;4750;49.506;10.400;2022-09-29T06:18:20;13.10;;;7.47;;
9422;SDS011;4750;49.506;10.400;2022-09-29T06:21:05;7.57;;;6.43;;
9422;SDS011;4750;49.506;10.400;2022-09-29T06:23:51;6.80;;;6.10;;
9422;SDS011;4750;49.506;10.400;2022-09-29T06:26:36;11.17;;;7.00;;
9422;SDS011;4750;49.506;10.400;2022-09-29T06:29:20;6.13;;;5.57;;
9422;SDS011;4750;49.506;10.400;2022-09-29T06:32:04;9.03;;;5.73;;
9422;SDS011;4750;49.506;10.400;2022-09-29T06:34:48;7.23;;;6.47;;
9422;SDS011;4750;49.506;10.400;2022-09-29T06:37:52;8.10;;;6.10;;
9422;SDS011;4750;49.506;10.400;2022-09-29T06:40:38;8.40;;;6.10;;
9422;SDS011;4750;49.506;10.400;2022-09-29T06:43:22;6.07;;;5.47;;
9422;SDS011;4750;49.506;10.400;2022-09-29T06:46:06;8.90;;;5.30;;
9422;SDS011;4750;49.506;10.400;2022-09-29T06:48:50;10.03;;;5.77;;
9422;SDS011;4750;49.506;10.400;2022-09-29T06:51:34;6.57;;;4.90;;
9422;SDS011;4750;49.506;10.400;2022-09-29T06:54:20;8.40;;;5.90;;
9422;SDS011;4750;49.506;10.400;2022-09-29T06:57:08;5.97;;;5.33;;
9422;SDS011;4750;49.506;10.400;2022-09-29T06:59:52;5.83;;;5.23;;
9422;SDS011;4750;49.506;10.400;2022-09-29T07:02:37;8.43;;;5.67;;
9422;SDS011;4750;49.506;10.400;2022-09-29T07:05:21;7.07;;;4.80;;
9422;SDS011;4750;49.506;10.400;2022-09-29T07:08:05;7.20;;;5.00;;
9422;SDS011;4750;49.506;10.400;2022-09-29T07:10:49;6.00;;;4.40;;
9422;SDS011;4750;49.506;10.400;2022-09-29T07:13:33;5.17;;;4.40;;
9422;SDS011;4750;49.506;10.400;2022-09-29T07:16:18;5.17;;;4.03;;
9422;SDS011;4750;49.506;10.400;2022-09-29T07:19:03;5.50;;;4.93;;
9422;SDS011;4750;49.506;10.400;2022-09-29T07:21:47;7.27;;;4.83;;
9422;SDS011;4750;49.506;10.400;2022-09-29T07:24:31;6.77;;;4.40;;
9422;SDS011;4750;49.506;10.400;2022-09-29T07:27:15;6.27;;;4.23;;
9422;SDS011;4750;49.506;10.400;2022-09-29T07:30:04;5.97;;;4.07;;
9422;SDS011;4750;49.506;10.400;2022-09-29T07:32:48;5.43;;;4.20;;
9422;SDS011;4750;49.506;10.400;2022-09-29T07:35:32;9.30;;;4.67;;
9422;SDS011;4750;49.506;10.400;2022-09-29T07:38:16;4.50;;;3.70;;
9422;SDS011;4750;49.506;10.400;2022-09-29T07:41:01;5.13;;;3.97;;
9422;SDS011;4750;49.506;10.400;2022-09-29T07:43:47;4.23;;;3.40;;
9422;SDS011;4750;49.506;10.400;2022-09-29T07:46:31;4.50;;;3.33;;
9422;SDS011;4750;49.506;10.400;2022-09-29T07:49:15;3.43;;;2.93;;
9422;SDS011;4750;49.506;10.400;2022-09-29T07:52:00;3.50;;;2.80;;
9422;SDS011;4750;49.506;10.400;2022-09-29T07:54:44;7.33;;;2.70;;
9422;SDS011;4750;49.506;10.400;2022-09-29T07:57:28;3.30;;;3.00;;
9422;SDS011;4750;49.506;10.400;2022-09-29T08:00:12;4.30;;;3.40;;
9422;SDS011;4750;49.506;10.400;2022-09-29T08:03:03;4.27;;;3.03;;
9422;SDS011;4750;49.506;10.400;2022-09-29T08:05:51;4.00;;;3.30;;
9422;SDS011;4750;49.506;10.400;2022-09-29T08:08:36;5.83;;;3.50;;
9422;SDS011;4750;49.506;10.400;2022-09-29T08:11:21;7.60;;;3.70;;
9422;SDS011;4750;49.506;10.400;2022-09-29T08:14:06;8.50;;;3.60;;
9422;SDS011;4750;49.506;10.400;2022-09-29T08:16:51;5.03;;;3.50;;
9422;SDS011;4750;49.506;10.400;2022-09-29T08:19:35;5.83;;;3.57;;
9422;SDS011;4750;49.506;10.400;2022-09-29T08:22:19;4.93;;;3.73;;
9422;SDS011;4750;49.506;10.400;2022-09-29T08:25:03;5.73;;;3.67;;
9422;SDS011;4750;49.506;10.400;2022-09-29T08:27:47;4.40;;;3.17;;
9422;SDS011;4750;49.506;10.400;2022-09-29T08:30:32;4.37;;;3.30;;
9422;SDS011;4750;49.506;10.400;2022-09-29T08:33:16;3.93;;;3.13;;
9422;SDS011;4750;49.506;10.400;2022-09-29T08:36:00;4.90;;;3.50;;
9422;SDS011;4750;49.506;10.400;2022-09-29T08:38:45;5.63;;;3.80;;
9422;SDS011;4750;49.506;10.400;2022-09-29T08:44:40;6.37;;;3.53;;
9422;SDS011;4750;49.506;10.400;2022-09-29T08:53:10;5.90;;;4.47;;
9422;SDS011;4750;49.506;10.400;2022-09-29T08:56:07;6.03;;;4.57;;
9422;SDS011;4750;49.506;10.400;2022-09-29T08:58:56;7.60;;;4.40;;
9422;SDS011;4750;49.506;10.400;2022-09-29T09:08:22;6.07;;;4.40;;
9422;SDS011;4750;49.506;10.400;2022-09-29T09:27:31;5.27;;;3.03;;
9422;SDS011;4750;49.506;10.400;2022-09-29T09:30:19;6.07;;;3.07;;
9422;SDS011;4750;49.506;10.400;2022-09-29T09:33:06;4.60;;;3.10;;
9422;SDS011;4750;49.506;10.400;2022-09-29T09:36:00;5.37;;;2.93;;
9422;SDS011;4750;49.506;10.400;2022-09-29T09:41:44;3.80;;;3.40;;
9422;SDS011;4750;49.506;10.400;2022-09-29T09:44:36;8.57;;;2.90;;
9422;SDS011;4750;49.506;10.400;2022-09-29T09:47:41;7.33;;;3.50;;
9422;SDS011;4750;49.506;10.400;2022-09-29T09:50:31;5.57;;;3.10;;
9422;SDS011;4750;49.506;10.400;2022-09-29T09:53:26;4.83;;;2.63;;
9422;SDS011;4750;49.506;10.400;2022-09-29T10:02:20;5.63;;;2.67;;
9422;SDS011;4750;49.506;10.400;2022-09-29T10:05:09;7.00;;;3.20;;
9422;SDS011;4750;49.506;10.400;2022-09-29T10:07:55;3.10;;;2.50;;
9422;SDS011;4750;49.506;10.400;2022-09-29T10:10:40;4.47;;;2.60;;
9422;SDS011;4750;49.506;10.400;2022-09-29T10:13:26;4.30;;;2.53;;
9422;SDS011;4750;49.506;10.400;2022-09-29T10:19:03;4.40;;;2.73;;
9422;SDS011;4750;49.506;10.400;2022-09-29T10:21:47;3.70;;;2.30;;
9422;SDS011;4750;49.506;10.400;2022-09-29T10:24:32;4.87;;;2.33;;
9422;SDS011;4750;49.506;10.400;2022-09-29T10:27:17;3.97;;;2.30;;
9422;SDS011;4750;49.506;10.400;2022-09-29T10:30:04;3.73;;;2.20;;
9422;SDS011;4750;49.506;10.400;2022-09-29T10:33:01;4.07;;;2.20;;
9422;SDS011;4750;49.506;10.400;2022-09-29T10:35:48;3.07;;;2.10;;
9422;SDS011;4750;49.506;10.400;2022-09-29T10:38:35;4.90;;;2.47;;
9422;SDS011;4750;49.506;10.400;2022-09-29T10:41:20;2.47;;;1.90;;
9422;SDS011;4750;49.506;10.400;2022-09-29T10:44:13;4.97;;;2.13;;
9422;SDS011;4750;49.506;10.400;2022-09-29T10:47:04;2.37;;;1.90;;
9422;SDS011;4750;49.506;10.400;2022-09-29T10:53:32;4.20;;;1.97;;
9422;SDS011;4750;49.506;10.400;2022-09-29T10:56:23;4.27;;;2.20;;
9422;SDS011;4750;49.506;10.400;2022-09-29T10:59:12;5.07;;;2.13;;
9422;SDS011;4750;49.506;10.400;2022-09-29T11:01:58;4.43;;;1.97;;
9422;SDS011;4750;49.506;10.400;2022-09-29T11:04:44;3.97;;;2.47;;
9422;SDS011;4750;49.506;10.400;2022-09-29T11:07:30;2.97;;;1.93;;
9422;SDS011;4750;49.506;10.400;2022-09-29T11:19:08;1.80;;;1.70;;
9422;SDS011;4750;49.506;10.400;2022-09-29T11:22:08;9.53;;;2.33;;
9422;SDS011;4750;49.506;10.400;2022-09-29T11:37:38;4.03;;;2.63;;
9422;SDS011;4750;49.506;10.400;2022-09-29T11:40:33;4.07;;;2.20;;
9422;SDS011;4750;49.506;10.400;2022-09-29T11:56:05;3.03;;;1.67;;
9422;SDS011;4750;49.506;10.400;2022-09-29T12:17:30;4.37;;;1.80;;
9422;SDS011;4750;49.506;10.400;2022-09-29T12:20:23;5.40;;;1.87;;
9422;SDS011;4750;49.506;10.400;2022-09-29T12:23:12;5.53;;;1.70;;
9422;SDS011;4750;49.506;10.400;2022-09-29T12:26:03;3.77;;;1.53;;
9422;SDS011;4750;49.506;10.400;2022-09-29T12:28:54;2.03;;;1.20;;
9422;SDS011;4750;49.506;10.400;2022-09-29T12:31:44;1.37;;;1.10;;
9422;SDS011;4750;49.506;10.400;2022-09-29T12:34:40;2.30;;;1.30;;
9422;SDS011;4750;49.506;10.400;2022-09-29T12:40:34;3.37;;;1.60;;
9422;SDS011;4750;49.506;10.400;2022-09-29T12:46:44;2.50;;;1.30;;
9422;SDS011;4750;49.506;10.400;2022-09-29T12:52:51;3.43;;;1.27;;
9422;SDS011;4750;49.506;10.400;2022-09-29T12:55:53;3.03;;;1.00;;
9422;SDS011;4750;49.506;10.400;2022-09-29T12:58:46;1.60;;;0.87;;
9422;SDS011;4750;49.506;10.400;2022-09-29T13:01:36;2.10;;;1.00;;
9422;SDS011;4750;49.506;10.400;2022-09-29T13:13:18;4.53;;;1.73;;
9422;SDS011;4750;49.506;10.400;2022-09-29T13:16:38;3.33;;;1.50;;
9422;SDS011;4750;49.506;10.400;2022-09-29T13:25:59;2.70;;;1.80;;
9422;SDS011;4750;49.506;10.400;2022-09-29T13:28:48;2.20;;;1.80;;
9422;SDS011;4750;49.506;10.400;2022-09-29T13:31:37;1.90;;;1.40;;
9422;SDS011;4750;49.506;10.400;2022-09-29T13:34:30;2.17;;;1.97;;
9422;SDS011;4750;49.506;10.400;2022-09-29T13:37:18;3.20;;;1.40;;
9422;SDS011;4750;49.506;10.400;2022-09-29T13:40:06;1.53;;;1.43;;
9422;SDS011;4750;49.506;10.400;2022-09-29T13:42:55;2.10;;;1.50;;
9422;SDS011;4750;49.506;10.400;2022-09-29T13:45:45;2.10;;;1.43;;
9422;SDS011;4750;49.506;10.400;2022-09-29T13:51:25;1.37;;;1.27;;
9422;SDS011;4750;49.506;10.400;2022-09-29T13:57:16;8.63;;;4.50;;
9422;SDS011;4750;49.506;10.400;2022-09-29T14:00:15;10.13;;;4.37;;
9422;SDS011;4750;49.506;10.400;2022-09-29T14:03:03;2.80;;;2.10;;
9422;SDS011;4750;49.506;10.400;2022-09-29T14:05:52;3.43;;;1.53;;
9422;SDS011;4750;49.506;10.400;2022-09-29T14:08:45;1.90;;;1.80;;
9422;SDS011;4750;49.506;10.400;2022-09-29T14:11:47;2.97;;;1.97;;
9422;SDS011;4750;49.506;10.400;2022-09-29T14:14:40;2.50;;;1.60;;
9422;SDS011;4750;49.506;10.400;2022-09-29T14:17:28;2.67;;;2.20;;
9422;SDS011;4750;49.506;10.400;2022-09-29T14:20:20;3.00;;;2.40;;
9422;SDS011;4750;49.506;10.400;2022-09-29T14:23:15;3.57;;;2.50;;
9422;SDS011;4750;49.506;10.400;2022-09-29T14:26:44;4.53;;;2.17;;
9422;SDS011;4750;49.506;10.400;2022-09-29T14:29:31;2.70;;;1.97;;
9422;SDS011;4750;49.506;10.400;2022-09-29T14:38:42;2.77;;;2.57;;
9422;SDS011;4750;49.506;10.400;2022-09-29T14:41:38;3.67;;;2.60;;
9422;SDS011;4750;49.506;10.400;2022-09-29T14:44:27;4.33;;;2.37;;
9422;SDS011;4750;49.506;10.400;2022-09-29T14:47:59;4.83;;;2.70;;
9422;SDS011;4750;49.506;10.400;2022-09-29T14:51:15;3.27;;;2.20;;
9422;SDS011;4750;49.506;10.400;2022-09-29T14:58:08;4.17;;;2.10;;
9422;SDS011;4750;49.506;10.400;2022-09-29T15:03:52;5.73;;;4.13;;
9422;SDS011;4750;49.506;10.400;2022-09-29T15:06:46;2.67;;;2.23;;
9422;SDS011;4750;49.506;10.400;2022-09-29T15:09:35;5.53;;;3.87;;
9422;SDS011;4750;49.506;10.400;2022-09-29T15:12:21;9.77;;;4.80;;
9422;SDS011;4750;49.506;10.400;2022-09-29T15:15:25;5.67;;;4.17;;
9422;SDS011;4750;49.506;10.400;2022-09-29T15:18:19;4.57;;;2.40;;
9422;SDS011;4750;49.506;10.400;2022-09-29T15:27:08;4.10;;;2.40;;
9422;SDS011;4750;49.506;10.400;2022-09-29T15:29:56;3.67;;;1.60;;
9422;SDS011;4750;49.506;10.400;2022-09-29T15:32:41;4.47;;;2.10;;
9422;SDS011;4750;49.506;10.400;2022-09-29T15:35:27;1.83;;;1.60;;
9422;SDS011;4750;49.506;10.400;2022-09-29T15:44:07;2.43;;;2.00;;
9422;SDS011;4750;49.506;10.400;2022-09-29T15:46:59;8.57;;;5.43;;
9422;SDS011;4750;49.506;10.400;2022-09-29T15:49:48;3.63;;;3.00;;
9422;SDS011;4750;49.506;10.400;2022-09-29T15:52:33;2.13;;;1.90;;
9422;SDS011;4750;49.506;10.400;2022-09-29T15:55:19;4.07;;;2.97;;
9422;SDS011;4750;49.506;10.400;2022-09-29T16:01:10;2.57;;;1.80;;
9422;SDS011;4750;49.506;10.400;2022-09-29T16:03:56;4.00;;;1.70;;
9422;SDS011;4750;49.506;10.400;2022-09-29T16:06:45;6.97;;;1.57;;
9422;SDS011;4750;49.506;10.400;2022-09-29T16:09:29;2.97;;;1.83;;
9422;SDS011;4750;49.506;10.400;2022-09-29T16:12:15;3.27;;;2.93;;
9422;SDS011;4750;49.506;10.400;2022-09-29T16:15:03;3.57;;;2.73;;
9422;SDS011;4750;49.506;10.400;2022-09-29T16:17:48;3.47;;;2.20;;
9422;SDS011;4750;49.506;10.400;2022-09-29T16:20:33;4.03;;;3.00;;
9422;SDS011;4750;49.506;10.400;2022-09-29T16:23:22;2.53;;;2.10;;
9422;SDS011;4750;49.506;10.400;2022-09-29T16:26:51;1.60;;;1.47;;
9422;SDS011;4750;49.506;10.400;2022-09-29T16:38:32;4.07;;;3.30;;
9422;SDS011;4750;49.506;10.400;2022-09-29T16:41:27;3.37;;;2.80;;
9422;SDS011;4750;49.506;10.400;2022-09-29T16:44:34;4.13;;;1.77;;
9422;SDS011;4750;49.506;10.400;2022-09-29T16:47:27;3.33;;;1.87;;
9422;SDS011;4750;49.506;10.400;2022-09-29T16:50:14;2.20;;;1.90;;
9422;SDS011;4750;49.506;10.400;2022-09-29T16:52:59;2.33;;;2.13;;
9422;SDS011;4750;49.506;10.400;2022-09-29T16:55:43;3.33;;;2.40;;
9422;SDS011;4750;49.506;10.400;2022-09-29T16:58:39;3.13;;;2.17;;
9422;SDS011;4750;49.506;10.400;2022-09-29T17:01:24;3.37;;;2.40;;
9422;SDS011;4750;49.506;10.400;2022-09-29T17:04:08;4.70;;;2.40;;
9422;SDS011;4750;49.506;10.400;2022-09-29T17:06:53;3.63;;;2.40;;
9422;SDS011;4750;49.506;10.400;2022-09-29T17:09:38;2.80;;;2.30;;
9422;SDS011;4750;49.506;10.400;2022-09-29T17:12:28;11.70;;;3.67;;
9422;SDS011;4750;49.506;10.400;2022-09-29T17:15:13;3.50;;;2.60;;
9422;SDS011;4750;49.506;10.400;2022-09-29T17:17:59;3.63;;;2.33;;
9422;SDS011;4750;49.506;10.400;2022-09-29T17:20:43;3.83;;;2.10;;
9422;SDS011;4750;49.506;10.400;2022-09-29T17:23:28;2.70;;;2.30;;
9422;SDS011;4750;49.506;10.400;2022-09-29T17:26:20;2.03;;;1.83;;
9422;SDS011;4750;49.506;10.400;2022-09-29T17:29:28;2.47;;;2.27;;
9422;SDS011;4750;49.506;10.400;2022-09-29T17:32:13;4.50;;;3.00;;
9422;SDS011;4750;49.506;10.400;2022-09-29T17:34:58;2.83;;;2.53;;
9422;SDS011;4750;49.506;10.400;2022-09-29T17:37:42;4.37;;;2.47;;
9422;SDS011;4750;49.506;10.400;2022-09-29T17:40:37;3.40;;;2.80;;
9422;SDS011;4750;49.506;10.400;2022-09-29T17:43:29;3.20;;;2.90;;
9422;SDS011;4750;49.506;10.400;2022-09-29T17:46:14;4.47;;;2.43;;
9422;SDS011;4750;49.506;10.400;2022-09-29T17:48:59;6.37;;;4.70;;
9422;SDS011;4750;49.506;10.400;2022-09-29T17:51:43;15.87;;;8.47;;
9422;SDS011;4750;49.506;10.400;2022-09-29T17:54:27;15.37;;;8.70;;
9422;SDS011;4750;49.506;10.400;2022-09-29T17:57:15;11.97;;;7.40;;
9422;SDS011;4750;49.506;10.400;2022-09-29T18:00:12;10.13;;;6.73;;
9422;SDS011;4750;49.506;10.400;2022-09-29T18:02:58;4.13;;;3.37;;
9422;SDS011;4750;49.506;10.400;2022-09-29T18:05:47;3.20;;;2.90;;
9422;SDS011;4750;49.506;10.400;2022-09-29T18:08:38;3.20;;;2.50;;
9422;SDS011;4750;49.506;10.400;2022-09-29T18:11:24;3.70;;;3.30;;
9422;SDS011;4750;49.506;10.400;2022-09-29T18:14:08;5.57;;;3.33;;
9422;SDS011;4750;49.506;10.400;2022-09-29T18:16:53;3.53;;;2.90;;
9422;SDS011;4750;49.506;10.400;2022-09-29T18:19:38;3.37;;;2.93;;
9422;SDS011;4750;49.506;10.400;2022-09-29T18:22:22;3.30;;;3.00;;
9422;SDS011;4750;49.506;10.400;2022-09-29T18:25:06;4.00;;;3.07;;
9422;SDS011;4750;49.506;10.400;2022-09-29T18:27:51;4.83;;;3.37;;
9422;SDS011;4750;49.506;10.400;2022-09-29T18:30:35;4.37;;;3.97;;
9422;SDS011;4750;49.506;10.400;2022-09-29T18:33:22;6.67;;;4.23;;
9422;SDS011;4750;49.506;10.400;2022-09-29T18:36:08;4.40;;;4.00;;
9422;SDS011;4750;49.506;10.400;2022-09-29T18:38:54;8.00;;;5.57;;
9422;SDS011;4750;49.506;10.400;2022-09-29T18:41:38;9.20;;;5.77;;
9422;SDS011;4750;49.506;10.400;2022-09-29T18:44:22;7.33;;;5.47;;
9422;SDS011;4750;49.506;10.400;2022-09-29T18:47:12;7.87;;;6.03;;
9422;SDS011;4750;49.506;10.400;2022-09-29T18:49:56;6.63;;;4.80;;
9422;SDS011;4750;49.506;10.400;2022-09-29T18:52:40;6.73;;;5.90;;
9422;SDS011;4750;49.506;10.400;2022-09-29T18:55:24;8.27;;;6.23;;
9422;SDS011;4750;49.506;10.400;2022-09-29T18:58:13;9.77;;;6.70;;
9422;SDS011;4750;49.506;10.400;2022-09-29T19:00:59;14.90;;;8.20;;
9422;SDS011;4750;49.506;10.400;2022-09-29T19:03:45;15.03;;;10.10;;
9422;SDS011;4750;49.506;10.400;2022-09-29T19:06:29;15.57;;;8.20;;
9422;SDS011;4750;49.506;10.400;2022-09-29T19:09:14;9.77;;;7.17;;
9422;SDS011;4750;49.506;10.400;2022-09-29T19:11:58;8.27;;;6.57;;
9422;SDS011;4750;49.506;10.400;2022-09-29T19:14:42;8.17;;;6.73;;
9422;SDS011;4750;49.506;10.400;2022-09-29T19:17:28;12.23;;;7.10;;
9422;SDS011;4750;49.506;10.400;2022-09-29T19:20:14;11.80;;;6.70;;
9422;SDS011;4750;49.506;10.400;2022-09-29T19:23:00;9.07;;;6.17;;
9422;SDS011;4750;49.506;10.400;2022-09-29T19:25:48;10.20;;;6.40;;
9422;SDS011;4750;49.506;10.400;2022-09-29T19:28:33;8.00;;;5.87;;
9422;SDS011;4750;49.506;10.400;2022-09-29T19:31:18;7.73;;;5.67;;
9422;SDS011;4750;49.506;10.400;2022-09-29T19:34:03;7.40;;;5.63;;
9422;SDS011;4750;49.506;10.400;2022-09-29T19:36:47;7.43;;;5.30;;
9422;SDS011;4750;49.506;10.400;2022-09-29T19:39:31;6.93;;;5.67;;
9422;SDS011;4750;49.506;10.400;2022-09-29T19:42:15;11.13;;;4.97;;
9422;SDS011;4750;49.506;10.400;2022-09-29T19:44:59;5.47;;;4.93;;
9422;SDS011;4750;49.506;10.400;2022-09-29T19:47:43;7.83;;;5.27;;
9422;SDS011;4750;49.506;10.400;2022-09-29T19:50:28;9.23;;;5.73;;
9422;SDS011;4750;49.506;10.400;2022-09-29T19:53:31;6.97;;;4.97;;
9422;SDS011;4750;49.506;10.400;2022-09-29T19:56:17;4.67;;;4.03;;
9422;SDS011;4750;49.506;10.400;2022-09-29T19:59:01;4.87;;;4.27;;
9422;SDS011;4750;49.506;10.400;2022-09-29T20:01:45;4.90;;;3.70;;
9422;SDS011;4750;49.506;10.400;2022-09-29T20:04:33;4.53;;;3.73;;
9422;SDS011;4750;49.506;10.400;2022-09-29T20:07:18;4.40;;;4.00;;
9422;SDS011;4750;49.506;10.400;2022-09-29T20:10:02;5.23;;;4.27;;
9422;SDS011;4750;49.506;10.400;2022-09-29T20:12:46;7.60;;;4.63;;
9422;SDS011;4750;49.506;10.400;2022-09-29T20:15:31;5.43;;;4.40;;
9422;SDS011;4750;49.506;10.400;2022-09-29T20:18:15;8.37;;;4.70;;
9422;SDS011;4750;49.506;10.400;2022-09-29T20:21:03;5.87;;;4.23;;
9422;SDS011;4750;49.506;10.400;2022-09-29T20:23:48;4.73;;;4.23;;
9422;SDS011;4750;49.506;10.400;2022-09-29T20:26:32;5.80;;;4.20;;
9422;SDS011;4750;49.506;10.400;2022-09-29T20:29:17;5.00;;;4.37;;